Time;durP1;ratioP1;P1;durP2;ratioP2;P2;SDS_P1;SDS_P2;PMS_P1;PMS_P2;Temp;Humidity;BMP_temperature;BMP_pressure;BME280_temperature;BME280_humidity;BME280_pressure;Samples;Min_cycle;Max_cycle;Signal;HPM_P1;HPM_P2
2022/03/13 05:01:53;;;;;;;46.80;20.23;;;2.30;88.90;;;;;;5317159;23;20496;-73
2022/03/13 05:04:20;;;;;;;32.77;16.27;;;2.30;89.10;;;;;;4972440;28;20991;-73
2022/03/13 05:06:46;;;;;;;26.63;14.40;;;2.30;89.30;;;;;;4972291;28;20484;-73
2022/03/13 05:09:13;;;;;;;26.33;14.70;;;2.20;89.10;;;;;;4972350;28;20459;-73
2022/03/13 05:11:41;;;;;;;27.87;12.70;;;2.20;89.80;;;;;;4972583;28;20564;-74
2022/03/13 05:14:07;;;;;;;20.77;12.70;;;2.20;89.80;;;;;;4973201;28;20663;-73
2022/03/13 05:16:34;;;;;;;23.37;12.50;;;2.20;89.80;;;;;;4975105;28;20891;-73
2022/03/13 05:19:06;;;;;;;20.30;12.23;;;2.20;90.30;;;;;;4975538;28;20460;-73
2022/03/13 05:21:34;;;;;;;19.80;11.70;;;2.10;90.40;;;;;;4975936;28;20476;-72
2022/03/13 05:24:01;;;;;;;18.23;11.70;;;2.10;90.50;;;;;;4975686;28;20453;-72
2022/03/13 05:26:28;;;;;;;18.97;11.73;;;2.10;90.60;;;;;;4975642;28;20968;-72
2022/03/13 05:28:55;;;;;;;18.23;11.33;;;2.10;90.50;;;;;;4975747;28;20459;-72
2022/03/13 05:31:22;;;;;;;17.73;10.83;;;2.10;90.30;;;;;;4975731;28;20483;-72
2022/03/13 05:33:49;;;;;;;20.30;12.10;;;2.10;90.20;;;;;;4975624;28;20491;-72
2022/03/13 05:36:17;;;;;;;20.10;12.27;;;2.00;90.20;;;;;;4975447;28;20489;-72
2022/03/13 05:38:44;;;;;;;21.90;11.67;;;2.00;90.10;;;;;;4975815;28;20460;-72
2022/03/13 05:41:12;;;;;;;22.83;12.60;;;2.00;90.30;;;;;;4975908;28;20563;-72
2022/03/13 05:43:42;;;;;;;18.20;11.67;;;2.00;90.40;;;;;;4975558;28;20448;-72
2022/03/13 05:46:10;;;;;;;22.27;12.70;;;2.00;90.30;;;;;;4975486;28;20499;-73
2022/03/13 05:48:36;;;;;;;17.00;11.20;;;2.00;90.60;;;;;;4975177;28;20904;-73
2022/03/13 05:51:03;;;;;;;17.80;11.10;;;2.00;90.80;;;;;;4975147;28;20531;-73
2022/03/13 05:53:32;;;;;;;17.80;11.27;;;2.00;90.80;;;;;;4975143;28;21047;-73
2022/03/13 05:55:58;;;;;;;19.77;11.93;;;2.00;90.70;;;;;;4975268;28;20539;-73
2022/03/13 05:58:25;;;;;;;19.73;11.70;;;1.90;90.40;;;;;;4975002;28;21023;-73
2022/03/13 06:01:03;;;;;;;17.80;10.67;;;1.90;90.50;;;;;;4975132;28;20580;-73
2022/03/13 06:03:30;;;;;;;15.60;10.87;;;1.90;90.70;;;;;;4975418;28;20882;-72
2022/03/13 06:05:56;;;;;;;19.27;11.30;;;1.90;90.90;;;;;;4975176;28;20467;-72
2022/03/13 06:08:23;;;;;;;17.87;11.53;;;1.90;90.80;;;;;;4974926;28;20458;-72
2022/03/13 06:10:52;;;;;;;14.27;10.40;;;1.90;90.70;;;;;;4974936;28;20556;-72
2022/03/13 06:13:22;;;;;;;18.53;11.13;;;1.90;91.00;;;;;;4974959;28;20492;-72
2022/03/13 06:15:48;;;;;;;19.27;11.77;;;1.80;91.20;;;;;;4974764;28;20471;-72
2022/03/13 06:18:15;;;;;;;15.60;10.80;;;1.80;91.20;;;;;;4974634;28;20452;-72
2022/03/13 06:20:43;;;;;;;15.77;10.50;;;1.80;91.10;;;;;;4974881;28;20476;-72
2022/03/13 06:23:12;;;;;;;17.90;11.33;;;1.80;91.10;;;;;;4974866;28;20507;-72
2022/03/13 06:25:39;;;;;;;20.20;12.07;;;1.90;91.20;;;;;;4974735;28;20456;-72
2022/03/13 06:28:07;;;;;;;17.37;11.87;;;1.90;91.20;;;;;;4973578;28;20848;-73
2022/03/13 06:30:34;;;;;;;16.20;10.77;;;1.80;91.40;;;;;;4974885;28;20977;-71
2022/03/13 06:33:01;;;;;;;18.40;11.75;;;1.90;91.80;;;;;;4974244;28;20894;-71
2022/03/13 06:35:28;;;;;;;17.30;11.27;;;2.10;92.00;;;;;;4974505;28;20209;-71
2022/03/13 06:37:56;;;;;;;14.93;10.30;;;2.10;91.40;;;;;;4974376;28;20539;-71
2022/03/13 06:40:25;;;;;;;16.83;11.00;;;2.10;91.20;;;;;;4974468;28;20828;-71
2022/03/13 06:42:55;;;;;;;19.10;10.63;;;2.10;91.10;;;;;;4974386;28;20871;-71
2022/03/13 06:45:24;;;;;;;19.10;11.53;;;2.10;90.80;;;;;;4974439;28;20963;-72
2022/03/13 06:47:52;;;;;;;16.07;10.60;;;2.10;90.80;;;;;;4974194;28;20921;-71
2022/03/13 06:50:22;;;;;;;17.70;10.13;;;2.00;91.50;;;;;;4974563;28;20492;-72
2022/03/13 06:52:51;;;;;;;17.23;11.20;;;2.00;91.50;;;;;;4974189;28;20457;-72
2022/03/13 06:55:21;;;;;;;16.73;10.33;;;2.00;91.90;;;;;;4974306;28;20455;-73
2022/03/13 06:57:49;;;;;;;18.20;10.40;;;2.00;92.20;;;;;;4974303;28;20839;-72
2022/03/13 07:00:17;;;;;;;18.97;12.10;;;2.10;92.30;;;;;;4974184;28;20463;-72
2022/03/13 07:02:45;;;;;;;17.57;10.60;;;2.10;92.60;;;;;;4974380;28;20475;-72
2022/03/13 07:05:13;;;;;;;16.60;11.13;;;2.10;92.90;;;;;;4974296;28;20452;-71
2022/03/13 07:07:39;;;;;;;18.27;11.60;;;2.20;93.00;;;;;;4973677;28;20456;-72
2022/03/13 07:10:11;;;;;;;16.33;11.67;;;2.20;93.20;;;;;;4973776;28;20994;-72
2022/03/13 07:12:38;;;;;;;16.53;10.80;;;2.20;93.60;;;;;;4973795;28;20457;-72
2022/03/13 07:15:08;;;;;;;20.10;12.53;;;2.20;94.00;;;;;;4973996;28;20496;-72
2022/03/13 07:17:35;;;;;;;17.83;10.53;;;2.30;94.10;;;;;;4973512;28;20496;-71
2022/03/13 07:20:05;;;;;;;21.53;9.17;;;2.30;93.60;;;;;;4973846;28;20535;-72
2022/03/13 07:22:32;;;;;;;16.10;7.90;;;2.30;92.30;;;;;;4973455;28;20508;-72
2022/03/13 07:24:59;;;;;;;11.63;7.40;;;2.40;90.80;;;;;;4973950;28;20454;-72
2022/03/13 07:27:26;;;;;;;14.67;9.27;;;2.50;89.10;;;;;;4973581;28;20461;-72
2022/03/13 07:29:53;;;;;;;14.87;9.80;;;2.60;89.90;;;;;;4973851;28;20445;-74
2022/03/13 07:32:21;;;;;;;15.47;10.47;;;2.70;91.50;;;;;;4973104;28;20552;-72
2022/03/13 07:34:49;;;;;;;17.77;11.47;;;2.80;92.80;;;;;;4973102;28;20492;-72
2022/03/13 07:37:17;;;;;;;12.47;8.77;;;2.90;92.70;;;;;;4972923;28;20536;-72
2022/03/13 07:39:47;;;;;;;16.20;10.10;;;2.90;91.80;;;;;;4973446;28;20832;-72
2022/03/13 07:42:14;;;;;;;16.37;9.93;;;3.00;93.30;;;;;;4973760;28;20476;-72
2022/03/13 07:44:42;;;;;;;15.20;9.40;;;3.10;93.50;;;;;;4973439;28;20445;-72
2022/03/13 07:47:09;;;;;;;12.30;9.03;;;3.20;93.30;;;;;;4973318;28;20460;-72
2022/03/13 07:49:36;;;;;;;16.90;9.60;;;3.30;93.40;;;;;;4973501;28;20457;-72
2022/03/13 07:52:03;;;;;;;15.40;10.00;;;3.40;93.40;;;;;;4973214;28;20477;-71
2022/03/13 07:54:32;;;;;;;15.17;9.40;;;3.50;93.10;;;;;;4973083;28;21030;-71
2022/03/13 07:56:58;;;;;;;12.43;8.47;;;3.60;93.20;;;;;;4973015;28;20540;-71
2022/03/13 07:59:25;;;;;;;12.63;9.10;;;3.70;92.10;;;;;;4973213;28;20467;-71
2022/03/13 08:01:52;;;;;;;15.30;9.37;;;3.90;89.80;;;;;;4973076;28;20490;-72
2022/03/13 08:04:19;;;;;;;15.90;9.13;;;4.10;90.00;;;;;;4953815;28;20453;-72
2022/03/13 08:06:46;;;;;;;13.10;8.63;;;4.30;90.90;;;;;;4953782;28;20457;-72
2022/03/13 08:09:13;;;;;;;14.07;8.60;;;4.40;92.20;;;;;;4953785;28;20953;-71
2022/03/13 08:11:42;;;;;;;14.20;9.87;;;4.50;91.00;;;;;;4953763;28;20466;-71
2022/03/13 08:14:12;;;;;;;16.40;9.23;;;4.70;91.20;;;;;;4953825;28;20557;-73
2022/03/13 08:16:39;;;;;;;14.47;8.80;;;4.90;90.80;;;;;;4953418;28;20560;-72
2022/03/13 08:19:06;;;;;;;12.50;7.67;;;5.10;89.20;;;;;;4953951;28;20450;-66
2022/03/13 08:21:33;;;;;;;19.53;9.43;;;5.30;85.90;;;;;;4953898;28;20466;-66
2022/03/13 08:24:00;;;;;;;10.73;8.33;;;5.50;81.70;;;;;;4953754;28;20449;-72
2022/03/13 08:26:27;;;;;;;14.30;8.30;;;5.70;78.50;;;;;;4953489;28;20544;-72
2022/03/13 08:28:55;;;;;;;11.73;8.90;;;5.80;80.10;;;;;;4953595;28;20938;-72
2022/03/13 08:31:22;;;;;;;14.30;8.33;;;6.00;80.70;;;;;;4953446;28;20473;-73
2022/03/13 08:33:50;;;;;;;13.90;9.17;;;6.30;81.20;;;;;;4953657;28;20500;-72
2022/03/13 08:36:17;;;;;;;11.33;8.30;;;6.50;77.70;;;;;;4953472;28;20910;-72
2022/03/13 08:38:44;;;;;;;12.63;7.93;;;6.60;75.80;;;;;;4953526;28;20465;-72
2022/03/13 08:41:11;;;;;;;10.90;7.67;;;6.70;74.20;;;;;;4953491;28;20479;-72
2022/03/13 08:43:38;;;;;;;9.77;7.97;;;6.90;77.00;;;;;;4953471;28;20461;-72
2022/03/13 08:46:06;;;;;;;17.20;9.10;;;7.10;71.00;;;;;;4953490;28;20539;-72
2022/03/13 08:48:34;;;;;;;12.20;8.30;;;7.20;69.90;;;;;;4953414;28;20453;-71
2022/03/13 08:51:01;;;;;;;14.00;8.87;;;7.50;74.60;;;;;;4955434;28;20495;-73
2022/03/13 08:53:28;;;;;;;12.07;8.20;;;7.80;74.80;;;;;;4956954;28;20843;-66
2022/03/13 08:55:55;;;;;;;13.30;8.60;;;8.10;72.60;;;;;;4957155;28;20441;-71
2022/03/13 08:58:21;;;;;;;13.27;8.60;;;8.20;70.70;;;;;;4956725;28;20461;-71
2022/03/13 09:00:51;;;;;;;15.50;8.83;;;8.40;69.60;;;;;;4964825;28;20472;-72
2022/03/13 09:03:19;;;;;;;16.20;9.30;;;8.50;67.60;;;;;;4967353;28;21889;-72
2022/03/13 09:05:48;;;;;;;14.80;8.53;;;8.60;69.60;;;;;;4965615;28;20452;-72
2022/03/13 09:08:15;;;;;;;14.17;9.40;;;9.20;69.20;;;;;;4965430;28;20956;-72
2022/03/13 09:10:42;;;;;;;12.27;8.33;;;9.50;71.40;;;;;;4967089;28;20456;-72
2022/03/13 09:13:09;;;;;;;14.73;9.27;;;9.70;67.80;;;;;;4965717;28;20452;-72
2022/03/13 09:15:37;;;;;;;13.13;8.40;;;9.60;66.50;;;;;;4965506;28;20571;-72
2022/03/13 09:18:05;;;;;;;21.20;9.50;;;9.70;70.30;;;;;;4967097;28;20499;-72
2022/03/13 09:20:33;;;;;;;15.43;10.13;;;9.90;67.50;;;;;;4964512;28;20241;-72
2022/03/13 09:23:00;;;;;;;14.67;10.23;;;10.00;66.20;;;;;;4967367;28;20529;-72
2022/03/13 09:25:27;;;;;;;13.87;9.67;;;10.10;68.00;;;;;;4967533;28;20528;-72
2022/03/13 09:27:54;;;;;;;16.77;10.13;;;10.50;67.30;;;;;;4965856;28;20453;-74
2022/03/13 09:30:21;;;;;;;16.93;10.67;;;10.70;66.50;;;;;;4967492;28;20818;-74
2022/03/13 09:32:49;;;;;;;13.37;9.63;;;10.80;66.70;;;;;;4966079;28;20889;-72
2022/03/13 09:35:17;;;;;;;15.53;10.43;;;10.90;65.20;;;;;;4965926;28;20489;-73
2022/03/13 09:37:46;;;;;;;13.53;9.80;;;11.20;64.60;;;;;;4967230;28;20509;-71
2022/03/13 09:40:14;;;;;;;16.63;10.00;;;11.60;68.70;;;;;;4962845;28;20450;-71
2022/03/13 09:42:42;;;;;;;17.17;11.43;;;12.00;67.80;;;;;;4956641;28;20454;-73
2022/03/13 09:45:10;;;;;;;19.10;10.50;;;12.30;67.20;;;;;;4956435;28;21087;-72
2022/03/13 09:47:37;;;;;;;16.40;11.40;;;12.80;63.10;;;;;;4956148;28;20457;-73
2022/03/13 09:50:06;;;;;;;15.40;10.97;;;12.90;66.60;;;;;;4955911;28;20933;-73
2022/03/13 09:52:33;;;;;;;16.97;10.93;;;13.20;61.30;;;;;;4955827;28;20900;-72
2022/03/13 09:55:02;;;;;;;19.27;12.33;;;12.80;62.30;;;;;;4955770;28;20548;-72
2022/03/13 09:57:29;;;;;;;18.83;11.80;;;12.70;62.20;;;;;;4959684;28;20459;-71
2022/03/13 09:59:55;;;;;;;20.07;11.47;;;12.70;62.00;;;;;;4974900;28;20949;-71
2022/03/13 10:02:33;;;;;;;16.17;11.47;;;12.80;65.50;;;;;;4973680;28;20488;-71
2022/03/13 10:05:11;;;;;;;16.90;10.77;;;12.90;63.10;;;;;;4974730;28;20826;-72
2022/03/13 10:07:54;;;;;;;22.70;12.40;;;13.10;65.20;;;;;;4975303;28;20960;-73
2022/03/13 10:10:23;;;;;;;25.90;12.07;;;13.60;64.80;;;;;;4973399;28;20496;-72
2022/03/13 10:12:50;;;;;;;21.07;13.00;;;14.40;65.10;;;;;;4975011;28;20457;-73
2022/03/13 10:15:17;;;;;;;21.40;13.27;;;14.50;61.30;;;;;;4974883;28;20867;-73
2022/03/13 10:17:44;;;;;;;18.50;12.60;;;14.30;61.10;;;;;;4974705;28;20449;-72
2022/03/13 10:20:20;;;;;;;20.07;13.47;;;14.10;62.00;;;;;;4974935;28;20457;-73
2022/03/13 10:22:48;;;;;;;19.83;13.53;;;14.40;65.00;;;;;;4975093;28;20471;-73
2022/03/13 10:25:27;;;;;;;21.00;13.63;;;14.90;64.50;;;;;;4974967;28;20523;-72
2022/03/13 10:28:11;;;;;;;20.17;13.93;;;16.00;62.20;;;;;;4974644;28;20217;-72
2022/03/13 10:30:38;;;;;;;23.90;13.30;;;16.00;59.90;;;;;;4975077;28;20492;-73
2022/03/13 10:33:06;;;;;;;18.20;14.10;;;15.80;60.40;;;;;;4974957;28;20535;-73
2022/03/13 10:35:33;;;;;;;24.27;14.60;;;15.50;61.00;;;;;;4974684;28;20592;-73
2022/03/13 10:37:59;;;;;;;20.90;14.37;;;15.60;61.80;;;;;;4974370;28;20543;-72
2022/03/13 10:40:33;;;;;;;20.57;15.23;;;15.90;62.00;;;;;;4974331;28;20539;-73
2022/03/13 10:43:06;;;;;;;25.00;16.17;;;16.00;59.90;;;;;;4974758;28;20543;-73
2022/03/13 10:45:37;;;;;;;21.93;14.90;;;16.00;60.60;;;;;;4974786;28;20556;-73
2022/03/13 10:48:30;;;;;;;22.77;15.07;;;15.90;59.30;;;;;;4974383;28;20819;-73
2022/03/13 10:50:59;;;;;;;23.60;15.23;;;15.60;59.70;;;;;;4964721;28;20531;-73
2022/03/13 10:53:27;;;;;;;27.70;16.70;;;15.90;62.40;;;;;;4974524;28;20491;-73
2022/03/13 10:56:06;;;;;;;22.33;16.40;;;16.60;59.80;;;;;;4974494;28;21023;-73
2022/03/13 10:58:37;;;;;;;26.20;16.60;;;17.40;61.40;;;;;;4972546;28;20467;-73
2022/03/13 11:01:07;;;;;;;26.37;17.73;;;17.90;60.50;;;;;;4954892;28;20842;-72
2022/03/13 11:03:35;;;;;;;26.10;16.50;;;18.50;59.90;;;;;;4954897;28;21016;-73
2022/03/13 11:06:02;;;;;;;26.00;16.53;;;18.50;57.50;;;;;;4973807;28;20503;-73
2022/03/13 11:08:29;;;;;;;27.27;17.30;;;18.70;58.10;;;;;;4973866;28;20543;-76
2022/03/13 11:10:57;;;;;;;24.47;16.93;;;18.60;57.80;;;;;;4974157;28;20479;-73
2022/03/13 11:13:27;;;;;;;25.93;16.53;;;18.50;57.70;;;;;;5007505;23;20529;-75
2022/03/13 11:15:57;;;;;;;32.40;18.80;;;18.60;58.80;;;;;;4954355;28;20521;-75
2022/03/13 11:18:32;;;;;;;28.83;17.70;;;18.80;58.80;;;;;;4954615;28;20467;-75
2022/03/13 11:20:59;;;;;;;24.77;18.40;;;18.70;56.60;;;;;;4954506;28;20466;-75
2022/03/13 11:23:32;;;;;;;29.60;19.57;;;19.00;57.80;;;;;;4954721;28;20505;-74
2022/03/13 11:25:59;;;;;;;25.80;17.07;;;19.10;58.00;;;;;;4954794;28;21061;-70
2022/03/13 11:28:28;;;;;;;33.57;23.73;;;19.60;57.70;;;;;;4954059;28;20959;-67
2022/03/13 11:30:57;;;;;;;31.63;19.27;;;19.60;57.30;;;;;;4954059;28;20970;-67
2022/03/13 11:33:32;;;;;;;24.93;18.50;;;19.00;55.70;;;;;;4954567;28;20481;-71
2022/03/13 11:36:29;;;;;;;30.27;19.53;;;18.40;56.70;;;;;;4954282;28;20552;-74
2022/03/13 11:38:58;;;;;;;49.73;33.53;;;18.00;56.80;;;;;;4954359;28;20504;-74
2022/03/13 11:41:41;;;;;;;41.80;31.27;;;18.00;59.60;;;;;;4954516;28;20489;-74
2022/03/13 11:44:38;;;;;;;35.07;23.07;;;18.60;58.20;;;;;;4954153;28;20917;-74
2022/03/13 11:49:58;;;;;;;26.00;19.30;;;19.80;57.90;;;;;;5089702;27;20525;-75
2022/03/13 11:52:33;;;;;;;29.80;19.97;;;20.30;55.90;;;;;;5089365;28;20537;-75
2022/03/13 11:55:02;;;;;;;31.53;20.70;;;20.10;55.70;;;;;;5089673;28;20554;-74
2022/03/13 11:57:42;;;;;;;27.20;19.37;;;19.80;55.70;;;;;;5089101;28;20457;-74
2022/03/13 12:00:32;;;;;;;34.70;20.07;;;19.70;56.50;;;;;;5089780;28;20436;-74
2022/03/13 12:03:11;;;;;;;27.07;19.20;;;20.10;57.10;;;;;;5089294;28;20448;-74
2022/03/13 12:05:51;;;;;;;25.47;18.27;;;21.30;56.10;;;;;;5089257;28;20451;-75
2022/03/13 12:08:21;;;;;;;27.53;19.37;;;21.60;55.30;;;;;;5089325;28;20493;-75
2022/03/13 12:10:49;;;;;;;31.30;20.67;;;21.70;55.80;;;;;;5089577;28;20436;-74
2022/03/13 12:13:17;;;;;;;32.30;19.57;;;21.40;56.00;;;;;;5088961;28;20525;-74
2022/03/13 12:15:45;;;;;;;30.10;20.10;;;21.40;55.30;;;;;;5088889;28;20947;-74
2022/03/13 12:18:17;;;;;;;29.87;20.87;;;21.70;54.90;;;;;;5089003;28;20454;-74
2022/03/13 12:20:45;;;;;;;28.63;18.60;;;22.20;55.70;;;;;;5088222;28;20459;-75
2022/03/13 12:23:26;;;;;;;27.73;18.60;;;22.60;55.50;;;;;;5088024;28;20558;-74
2022/03/13 12:25:54;;;;;;;26.40;19.20;;;22.60;54.20;;;;;;5088238;28;20442;-73
2022/03/13 12:28:32;;;;;;;27.67;18.97;;;22.10;53.70;;;;;;5087586;28;20998;-74
2022/03/13 12:31:01;;;;;;;30.53;19.03;;;21.90;55.30;;;;;;5087526;28;20448;-73
2022/03/13 12:33:31;;;;;;;27.40;19.93;;;22.10;54.60;;;;;;5088044;28;20475;-73
2022/03/13 12:36:00;;;;;;;30.67;18.30;;;22.30;53.60;;;;;;5087857;28;20478;-74
2022/03/13 12:38:32;;;;;;;30.30;20.90;;;22.40;54.60;;;;;;5087446;28;20486;-74
2022/03/13 12:41:02;;;;;;;26.90;18.90;;;22.20;53.60;;;;;;5087617;28;21017;-74
2022/03/13 12:43:47;;;;;;;29.17;19.07;;;22.30;54.70;;;;;;5087374;28;20474;-73
2022/03/13 12:46:17;;;;;;;26.20;19.07;;;22.40;54.10;;;;;;5087607;28;20443;-73
2022/03/13 12:48:55;;;;;;;27.13;19.87;;;22.70;53.10;;;;;;5087149;28;20497;-73
2022/03/13 12:51:41;;;;;;;28.67;19.83;;;22.80;53.50;;;;;;5087441;28;20541;-76
2022/03/13 12:54:12;;;;;;;33.40;22.60;;;22.20;53.60;;;;;;5087265;28;20475;-76
2022/03/13 12:56:47;;;;;;;27.33;19.20;;;21.90;54.90;;;;;;5087346;28;20458;-75
2022/03/13 12:59:25;;;;;;;28.50;19.30;;;21.90;53.60;;;;;;5085786;28;20451;-75
2022/03/13 13:02:10;;;;;;;28.50;18.07;;;21.80;53.70;;;;;;5073655;28;20531;-76
2022/03/13 13:04:38;;;;;;;32.67;21.53;;;21.50;53.70;;;;;;5073920;28;20551;-76
2022/03/13 13:07:07;;;;;;;34.83;20.73;;;21.30;53.60;;;;;;5074233;28;20537;-66
2022/03/13 13:09:37;;;;;;;25.53;18.60;;;20.90;54.10;;;;;;5074443;28;20484;-70
2022/03/13 13:12:05;;;;;;;30.97;20.23;;;21.00;55.30;;;;;;5074319;28;20860;-65
2022/03/13 13:14:32;;;;;;;30.40;18.97;;;20.90;54.60;;;;;;5074074;28;20474;-68
2022/03/13 13:17:00;;;;;;;28.73;19.33;;;21.10;55.80;;;;;;5073951;28;20476;-69
2022/03/13 13:19:27;;;;;;;29.67;19.50;;;21.20;54.20;;;;;;5074039;28;20535;-68
2022/03/13 13:21:59;;;;;;;31.17;20.47;;;21.20;54.20;;;;;;5074330;28;20440;-69
2022/03/13 13:24:32;;;;;;;28.77;20.33;;;21.30;54.40;;;;;;5074076;28;20460;-68
2022/03/13 13:27:00;;;;;;;25.10;18.47;;;21.40;54.20;;;;;;5073849;28;20551;-69
2022/03/13 13:29:32;;;;;;;25.23;17.77;;;21.60;54.20;;;;;;5074097;28;20619;-68
2022/03/13 13:32:20;;;;;;;25.67;18.50;;;22.00;54.20;;;;;;5074191;28;20455;-68
2022/03/13 13:35:04;;;;;;;28.47;18.20;;;22.00;54.20;;;;;;5074051;28;20902;-69
2022/03/13 13:37:32;;;;;;;25.23;17.10;;;22.20;53.80;;;;;;5073500;28;20462;-69
2022/03/13 13:40:04;;;;;;;25.47;17.70;;;22.40;54.20;;;;;;5074124;28;20528;-69
2022/03/13 13:42:35;;;;;;;36.10;23.80;;;22.50;54.30;;;;;;5074055;28;20456;-69
2022/03/13 13:45:03;;;;;;;24.00;18.03;;;22.50;53.50;;;;;;5074069;28;20472;-75
2022/03/13 13:47:30;;;;;;;24.13;16.83;;;22.70;53.90;;;;;;5073778;28;20877;-76
2022/03/13 13:49:57;;;;;;;24.90;17.73;;;22.90;53.80;;;;;;5073859;28;20522;-76
2022/03/13 13:52:32;;;;;;;27.40;17.33;;;22.90;53.60;;;;;;5073833;28;20487;-76
2022/03/13 13:54:59;;;;;;;26.07;17.03;;;22.80;52.50;;;;;;5073780;28;20517;-75
2022/03/13 13:57:27;;;;;;;32.70;22.13;;;22.80;53.50;;;;;;5073648;28;20451;-75
2022/03/13 13:59:55;;;;;;;26.27;19.50;;;23.00;54.10;;;;;;5073712;28;20444;-75
2022/03/13 14:02:25;;;;;;;43.93;33.60;;;23.00;52.90;;;;;;5073697;28;20459;-75
2022/03/13 14:04:52;;;;;;;56.70;41.73;;;23.00;52.90;;;;;;5073657;28;20476;-75
2022/03/13 14:07:20;;;;;;;28.70;19.23;;;23.00;53.00;;;;;;5073585;28;20454;-75
2022/03/13 14:09:47;;;;;;;24.17;17.77;;;22.80;52.80;;;;;;5073573;28;20576;-75
2022/03/13 14:12:14;;;;;;;26.50;17.37;;;22.80;53.00;;;;;;5072164;28;20944;-75
2022/03/13 14:14:41;;;;;;;33.03;23.23;;;22.80;53.40;;;;;;5073186;28;20525;-74
2022/03/13 14:17:10;;;;;;;26.07;18.00;;;23.00;53.40;;;;;;5073018;28;20457;-74
2022/03/13 14:19:38;;;;;;;26.07;18.53;;;23.20;52.50;;;;;;5073099;28;20452;-74
2022/03/13 14:22:06;;;;;;;22.63;15.60;;;23.00;52.50;;;;;;5073336;28;20452;-74
2022/03/13 14:24:34;;;;;;;23.20;16.87;;;23.10;53.20;;;;;;5073117;28;20507;-74
2022/03/13 14:27:01;;;;;;;24.27;17.40;;;23.20;52.70;;;;;;5072764;28;20451;-75
2022/03/13 14:29:28;;;;;;;24.00;16.40;;;23.20;52.50;;;;;;5072820;28;20487;-74
2022/03/13 14:31:55;;;;;;;23.40;16.77;;;23.20;52.20;;;;;;5072790;28;20448;-75
2022/03/13 14:34:23;;;;;;;25.23;16.80;;;23.20;52.40;;;;;;5073000;28;20555;-74
2022/03/13 14:36:51;;;;;;;26.98;17.70;;;23.10;52.40;;;;;;5071696;28;20436;-68
2022/03/13 14:39:18;;;;;;;22.30;16.47;;;23.30;53.00;;;;;;5072258;28;20210;-75
2022/03/13 14:41:45;;;;;;;24.20;17.13;;;23.30;53.00;;;;;;5071830;28;20828;-75
2022/03/13 14:44:12;;;;;;;24.27;16.10;;;23.40;52.80;;;;;;5072581;28;20472;-75
2022/03/13 14:46:40;;;;;;;25.73;17.13;;;23.30;52.50;;;;;;5072577;28;20526;-75
2022/03/13 14:49:07;;;;;;;25.83;16.37;;;23.30;52.10;;;;;;5072573;28;20516;-75
2022/03/13 14:51:35;;;;;;;22.47;15.73;;;23.30;52.90;;;;;;5072542;28;20455;-69
2022/03/13 14:54:02;;;;;;;24.80;17.87;;;23.30;52.40;;;;;;5072267;28;20959;-68
2022/03/13 14:56:29;;;;;;;21.90;16.23;;;23.30;52.20;;;;;;5072095;28;20956;-69
2022/03/13 14:58:56;;;;;;;22.30;16.40;;;23.20;52.50;;;;;;5072304;28;20444;-69
2022/03/13 15:01:23;;;;;;;22.77;16.80;;;23.20;52.30;;;;;;5072535;28;20459;-70
2022/03/13 15:03:50;;;;;;;27.33;16.80;;;23.10;52.30;;;;;;5072425;28;20475;-70
2022/03/13 15:06:17;;;;;;;22.70;15.97;;;22.90;51.90;;;;;;5072126;28;20452;-70
2022/03/13 15:08:45;;;;;;;23.30;16.03;;;22.90;52.70;;;;;;5071363;28;20539;-70
2022/03/13 15:11:13;;;;;;;25.10;16.50;;;22.80;51.70;;;;;;5072054;28;20965;-69
2022/03/13 15:13:40;;;;;;;19.50;14.50;;;22.80;52.50;;;;;;5072169;28;20555;-71
2022/03/13 15:16:07;;;;;;;25.57;15.83;;;22.60;52.80;;;;;;5072396;28;20448;-68
2022/03/13 15:18:34;;;;;;;22.90;15.67;;;22.70;52.80;;;;;;5071957;28;20444;-68
2022/03/13 15:21:01;;;;;;;21.40;16.23;;;22.80;52.50;;;;;;5072207;28;20469;-68
2022/03/13 15:23:28;;;;;;;20.47;15.83;;;23.00;52.40;;;;;;5071774;28;20468;-68
2022/03/13 15:25:57;;;;;;;21.47;15.63;;;23.20;52.10;;;;;;5071758;28;20590;-69
2022/03/13 15:28:24;;;;;;;25.10;14.83;;;23.30;51.90;;;;;;5071939;28;20531;-69
2022/03/13 15:30:51;;;;;;;19.90;15.60;;;23.50;52.20;;;;;;5072098;28;20487;-69
2022/03/13 15:33:18;;;;;;;24.87;17.20;;;23.60;52.40;;;;;;5071960;28;20475;-69
2022/03/13 15:35:45;;;;;;;23.27;17.70;;;23.80;52.00;;;;;;5072006;28;20498;-68
2022/03/13 15:38:13;;;;;;;22.97;16.57;;;23.90;51.90;;;;;;5071556;28;20451;-70
2022/03/13 15:40:40;;;;;;;24.63;16.30;;;23.90;51.80;;;;;;5071870;28;20448;-69
2022/03/13 15:43:10;;;;;;;23.57;16.63;;;24.10;51.80;;;;;;5071927;28;20543;-69
2022/03/13 15:45:37;;;;;;;26.10;17.07;;;24.10;51.20;;;;;;5071937;28;20448;-68
2022/03/13 15:48:05;;;;;;;22.10;17.20;;;24.10;50.90;;;;;;5071816;28;20466;-68
2022/03/13 15:50:36;;;;;;;24.30;16.57;;;24.20;51.10;;;;;;5071574;28;20498;-68
2022/03/13 15:53:03;;;;;;;25.30;16.07;;;24.20;51.30;;;;;;5071510;28;20452;-69
2022/03/13 15:55:30;;;;;;;22.63;16.23;;;23.90;50.80;;;;;;5071680;28;20455;-68
2022/03/13 15:57:57;;;;;;;26.17;17.23;;;23.90;50.90;;;;;;5071365;28;20459;-70
2022/03/13 16:00:26;;;;;;;22.40;16.10;;;23.90;51.20;;;;;;5071683;28;20448;-69
2022/03/13 16:02:53;;;;;;;22.03;16.07;;;23.90;50.90;;;;;;5071187;28;21035;-68
2022/03/13 16:05:20;;;;;;;23.17;17.27;;;23.90;51.00;;;;;;5071393;28;20480;-68
2022/03/13 16:07:47;;;;;;;24.67;16.70;;;23.90;50.50;;;;;;5071246;28;20491;-68
2022/03/13 16:10:15;;;;;;;22.67;16.00;;;23.90;50.90;;;;;;5068222;28;20492;-68
2022/03/13 16:12:42;;;;;;;23.90;18.07;;;23.90;51.10;;;;;;5071324;28;21002;-69
2022/03/13 16:15:10;;;;;;;22.87;16.47;;;23.90;50.40;;;;;;5062265;28;20528;-68
2022/03/13 16:17:38;;;;;;;23.47;16.57;;;23.90;50.60;;;;;;5050861;28;20532;-68
2022/03/13 16:20:08;;;;;;;22.03;16.67;;;23.80;51.20;;;;;;5051156;28;20945;-68
2022/03/13 16:22:35;;;;;;;22.60;16.13;;;23.80;50.90;;;;;;5051360;28;20536;-69
2022/03/13 16:25:04;;;;;;;23.13;15.97;;;23.80;51.00;;;;;;5051438;28;20472;-69
2022/03/13 16:27:31;;;;;;;24.23;16.70;;;23.70;50.60;;;;;;5051296;28;20495;-68
2022/03/13 16:29:58;;;;;;;25.13;17.00;;;23.50;51.00;;;;;;5051290;28;20499;-67
2022/03/13 16:32:26;;;;;;;21.50;15.67;;;23.40;51.30;;;;;;5067173;28;20951;-67
2022/03/13 16:34:54;;;;;;;23.10;16.27;;;23.30;51.80;;;;;;5072071;28;20482;-68
2022/03/13 16:37:21;;;;;;;26.57;17.27;;;23.00;51.40;;;;;;5074979;28;20888;-67
2022/03/13 16:39:52;;;;;;;29.73;16.43;;;22.70;51.60;;;;;;5066013;28;20876;-67
2022/03/13 16:42:19;;;;;;;25.73;16.53;;;22.30;51.50;;;;;;5064957;28;20523;-76
2022/03/13 16:44:47;;;;;;;24.77;15.90;;;21.90;51.80;;;;;;5074852;28;20560;-76
2022/03/13 16:47:14;;;;;;;24.50;17.67;;;21.40;52.40;;;;;;5074702;28;20471;-76
2022/03/13 16:49:41;;;;;;;23.00;16.17;;;21.00;52.20;;;;;;5074042;28;20549;-76
2022/03/13 16:52:09;;;;;;;22.93;15.60;;;20.70;53.10;;;;;;5074495;28;20452;-76
2022/03/13 16:54:36;;;;;;;22.30;16.93;;;20.50;52.60;;;;;;5074600;28;20494;-76
2022/03/13 16:57:03;;;;;;;23.63;17.00;;;20.20;52.70;;;;;;5074482;28;20825;-76
2022/03/13 16:59:32;;;;;;;23.93;17.10;;;20.00;53.10;;;;;;5074599;28;20529;-76
2022/03/13 17:01:58;;;;;;;24.27;16.80;;;19.80;53.30;;;;;;5074883;28;20517;-75
2022/03/13 17:04:25;;;;;;;29.67;16.57;;;19.70;53.00;;;;;;5069897;28;20478;-75
2022/03/13 17:06:52;;;;;;;25.43;16.37;;;19.40;53.20;;;;;;5070079;28;21049;-76
2022/03/13 17:09:20;;;;;;;24.40;17.07;;;19.20;53.70;;;;;;5074695;28;20448;-76
2022/03/13 17:11:47;;;;;;;24.40;16.23;;;19.10;53.90;;;;;;5061685;28;20523;-76
2022/03/13 17:14:14;;;;;;;23.77;16.60;;;19.00;53.80;;;;;;5092678;22;20497;-74
2022/03/13 17:16:41;;;;;;;22.90;15.90;;;18.80;53.80;;;;;;5056067;28;20925;-74
2022/03/13 17:19:10;;;;;;;25.57;16.73;;;18.60;54.60;;;;;;5054865;28;20544;-74
2022/03/13 17:21:38;;;;;;;26.37;15.30;;;18.50;54.40;;;;;;5055262;28;20444;-74
2022/03/13 17:24:08;;;;;;;21.30;14.40;;;18.40;54.00;;;;;;5054785;28;20972;-74
2022/03/13 17:26:36;;;;;;;21.60;14.33;;;18.30;54.30;;;;;;5054786;28;20467;-73
2022/03/13 17:29:03;;;;;;;21.10;14.37;;;18.20;54.10;;;;;;5054781;28;20430;-74
2022/03/13 17:31:30;;;;;;;22.13;14.27;;;18.00;54.30;;;;;;5054674;28;20563;-74
2022/03/13 17:33:57;;;;;;;21.00;14.63;;;17.90;54.10;;;;;;5055558;28;20469;-74
2022/03/13 17:36:24;;;;;;;20.53;14.60;;;17.80;54.90;;;;;;5055655;28;20462;-73
2022/03/13 17:38:51;;;;;;;22.17;14.70;;;17.70;55.10;;;;;;5055284;28;20499;-74
2022/03/13 17:41:21;;;;;;;21.17;14.20;;;17.50;54.80;;;;;;5054969;28;20959;-74
2022/03/13 17:43:49;;;;;;;21.73;14.83;;;17.40;55.10;;;;;;5055691;28;20500;-73